sensor_id;sensor_type;location;lat;lon;timestamp;pressure;altitude;pressure_sealevel;temperature;humidity
68376;BME280;55318;52.068;5.188;2024-03-23T00:54:43;101093.0;;;9.84;100.0
68376;BME280;55318;52.068;5.188;2024-03-23T00:56:19;101092.0;;;9.88;100.0
68376;BME280;55318;52.068;5.188;2024-03-23T00:57:55;101088.0;;;9.77;100.0
68376;BME280;55318;52.068;5.188;2024-03-23T01:01:07;101084.0;;;9.81;100.0
68376;BME280;55318;52.068;5.188;2024-03-23T01:02:43;101089.0;;;9.85;100.0
68376;BME280;55318;52.068;5.188;2024-03-23T01:04:19;101084.0;;;9.81;100.0
68376;BME280;55318;52.068;5.188;2024-03-23T01:05:59;101087.0;;;9.72;100.0
68376;BME280;55318;52.068;5.188;2024-03-23T01:09:12;101084.0;;;9.83;100.0
68376;BME280;55318;52.068;5.188;2024-03-23T01:10:54;101076.0;;;9.81;100.0
68376;BME280;55318;52.068;5.188;2024-03-23T01:12:30;101078.0;;;9.72;100.0
68376;BME280;55318;52.068;5.188;2024-03-23T01:15:48;101072.0;;;9.76;100.0
68376;BME280;55318;52.068;5.188;2024-03-23T01:17:24;101070.0;;;9.72;100.0
68376;BME280;55318;52.068;5.188;2024-03-23T01:19:00;101073.0;;;9.8;100.0
68376;BME280;55318;52.068;5.188;2024-03-23T01:20:36;101067.0;;;9.75;100.0
68376;BME280;55318;52.068;5.188;2024-03-23T01:23:48;101061.0;;;9.85;100.0
68376;BME280;55318;52.068;5.188;2024-03-23T01:25:25;101056.0;;;9.86;100.0
68376;BME280;55318;52.068;5.188;2024-03-23T01:27:01;101052.0;;;9.73;100.0
68376;BME280;55318;52.068;5.188;2024-03-23T01:30:13;101049.0;;;9.59;100.0
68376;BME280;55318;52.068;5.188;2024-03-23T01:31:49;101043.0;;;9.56;100.0
68376;BME280;55318;52.068;5.188;2024-03-23T01:33:25;101045.0;;;9.44;100.0
68376;BME280;55318;52.068;5.188;2024-03-23T01:36:37;101044.0;;;9.32;100.0
68376;BME280;55318;52.068;5.188;2024-03-23T01:38:13;101041.0;;;9.23;100.0
68376;BME280;55318;52.068;5.188;2024-03-23T01:39:49;101040.0;;;9.14;100.0
68376;BME280;55318;52.068;5.188;2024-03-23T01:41:25;101041.0;;;9.06;100.0
68376;BME280;55318;52.068;5.188;2024-03-23T01:44:41;101039.0;;;9.13;100.0
68376;BME280;55318;52.068;5.188;2024-03-23T01:46:17;101038.0;;;8.91;100.0
68376;BME280;55318;52.068;5.188;2024-03-23T01:47:53;101035.0;;;8.76;100.0
68376;BME280;55318;52.068;5.188;2024-03-23T01:51:05;101037.0;;;8.63;100.0
68376;BME280;55318;52.068;5.188;2024-03-23T01:52:42;101034.0;;;8.59;100.0
68376;BME280;55318;52.068;5.188;2024-03-23T01:54:18;101038.0;;;8.53;100.0
68376;BME280;55318;52.068;5.188;2024-03-23T01:57:31;101030.0;;;8.43;100.0
68376;BME280;55318;52.068;5.188;2024-03-23T01:59:08;101031.0;;;8.35;100.0
68376;BME280;55318;52.068;5.188;2024-03-23T02:00:44;101032.0;;;8.22;100.0
68376;BME280;55318;52.068;5.188;2024-03-23T02:03:57;101026.0;;;8.1;100.0
68376;BME280;55318;52.068;5.188;2024-03-23T02:05:33;101030.0;;;8.11;100.0
68376;BME280;55318;52.068;5.188;2024-03-23T02:07:09;101030.0;;;7.98;100.0
68376;BME280;55318;52.068;5.188;2024-03-23T02:08:45;101031.0;;;7.99;100.0
68376;BME280;55318;52.068;5.188;2024-03-23T02:11:58;101033.0;;;7.96;100.0
68376;BME280;55318;52.068;5.188;2024-03-23T02:13:34;101033.0;;;7.99;100.0
68376;BME280;55318;52.068;5.188;2024-03-23T02:15:10;101032.0;;;7.94;100.0
68376;BME280;55318;52.068;5.188;2024-03-23T02:18:22;101030.0;;;7.96;100.0
68376;BME280;55318;52.068;5.188;2024-03-23T02:19:58;101027.0;;;8.06;100.0
68376;BME280;55318;52.068;5.188;2024-03-23T02:21:35;101022.0;;;7.97;100.0
68376;BME280;55318;52.068;5.188;2024-03-23T02:24:49;101020.0;;;7.92;100.0
68376;BME280;55318;52.068;5.188;2024-03-23T02:26:25;101019.0;;;7.94;100.0
68376;BME280;55318;52.068;5.188;2024-03-23T02:28:01;101014.0;;;8.01;100.0
68376;BME280;55318;52.068;5.188;2024-03-23T02:29:37;101011.0;;;8.18;100.0
68376;BME280;55318;52.068;5.188;2024-03-23T02:32:50;101014.0;;;8.06;100.0
68376;BME280;55318;52.068;5.188;2024-03-23T02:34:26;101008.0;;;8.01;100.0
68376;BME280;55318;52.068;5.188;2024-03-23T02:36:02;101007.0;;;8.07;100.0
68376;BME280;55318;52.068;5.188;2024-03-23T02:39:14;101012.0;;;8.06;100.0
68376;BME280;55318;52.068;5.188;2024-03-23T02:40:50;101015.0;;;8.05;100.0
68376;BME280;55318;52.068;5.188;2024-03-23T02:42:26;101015.0;;;8.03;100.0
68376;BME280;55318;52.068;5.188;2024-03-23T02:45:38;101011.0;;;8.05;100.0
68376;BME280;55318;52.068;5.188;2024-03-23T02:47:15;101012.0;;;7.96;100.0
68376;BME280;55318;52.068;5.188;2024-03-23T02:48:51;101011.0;;;7.9;100.0
68376;BME280;55318;52.068;5.188;2024-03-23T02:52:03;101009.0;;;7.84;100.0
68376;BME280;55318;52.068;5.188;2024-03-23T02:53:39;101015.0;;;7.94;100.0
68376;BME280;55318;52.068;5.188;2024-03-23T02:55:15;101012.0;;;7.91;100.0
68376;BME280;55318;52.068;5.188;2024-03-23T02:56:51;101013.0;;;7.84;100.0
68376;BME280;55318;52.068;5.188;2024-03-23T03:00:04;101009.0;;;7.69;100.0
68376;BME280;55318;52.068;5.188;2024-03-23T03:01:40;101008.0;;;7.72;100.0
68376;BME280;55318;52.068;5.188;2024-03-23T03:03:16;101010.0;;;7.64;100.0
68376;BME280;55318;52.068;5.188;2024-03-23T03:06:31;101009.0;;;7.57;100.0
68376;BME280;55318;52.068;5.188;2024-03-23T03:08:07;101007.0;;;7.58;100.0
68376;BME280;55318;52.068;5.188;2024-03-23T03:09:43;101006.0;;;7.53;100.0
68376;BME280;55318;52.068;5.188;2024-03-23T03:12:55;101001.0;;;7.38;100.0
68376;BME280;55318;52.068;5.188;2024-03-23T03:14:31;101002.0;;;7.21;100.0
68376;BME280;55318;52.068;5.188;2024-03-23T03:16:08;100999.0;;;7.12;100.0
68376;BME280;55318;52.068;5.188;2024-03-23T03:17:44;101000.0;;;6.99;100.0
68376;BME280;55318;52.068;5.188;2024-03-23T03:20:57;101002.0;;;6.87;100.0
68376;BME280;55318;52.068;5.188;2024-03-23T03:22:33;100999.0;;;6.77;100.0
68376;BME280;55318;52.068;5.188;2024-03-23T03:24:09;100997.0;;;6.74;100.0
68376;BME280;55318;52.068;5.188;2024-03-23T03:27:21;100994.0;;;6.68;100.0
68376;BME280;55318;52.068;5.188;2024-03-23T03:28:57;100995.0;;;6.79;100.0
68376;BME280;55318;52.068;5.188;2024-03-23T03:30:33;100994.0;;;6.68;100.0
68376;BME280;55318;52.068;5.188;2024-03-23T03:33:45;100993.0;;;6.74;100.0
68376;BME280;55318;52.068;5.188;2024-03-23T03:35:21;100995.0;;;6.62;100.0
68376;BME280;55318;52.068;5.188;2024-03-23T03:36:58;100994.0;;;6.48;100.0
68376;BME280;55318;52.068;5.188;2024-03-23T03:40:11;100992.0;;;6.42;100.0
68376;BME280;55318;52.068;5.188;2024-03-23T03:41:48;100992.0;;;6.35;100.0
68376;BME280;55318;52.068;5.188;2024-03-23T03:43:24;100993.0;;;6.43;100.0
68376;BME280;55318;52.068;5.188;2024-03-23T03:45:00;100988.0;;;6.26;100.0
68376;BME280;55318;52.068;5.188;2024-03-23T03:48:12;100988.0;;;6.3;100.0
68376;BME280;55318;52.068;5.188;2024-03-23T03:49:48;100986.0;;;6.22;100.0
68376;BME280;55318;52.068;5.188;2024-03-23T03:51:24;100982.0;;;6.22;100.0
68376;BME280;55318;52.068;5.188;2024-03-23T03:54:37;100977.0;;;6.23;100.0
68376;BME280;55318;52.068;5.188;2024-03-23T03:56:13;100977.0;;;6.14;100.0
68376;BME280;55318;52.068;5.188;2024-03-23T03:57:49;100969.0;;;6.11;100.0
68376;BME280;55318;52.068;5.188;2024-03-23T04:01:02;100973.0;;;6.11;100.0
68376;BME280;55318;52.068;5.188;2024-03-23T04:02:38;100968.0;;;6.09;100.0
68376;BME280;55318;52.068;5.188;2024-03-23T04:04:14;100971.0;;;6.28;100.0
68376;BME280;55318;52.068;5.188;2024-03-23T04:05:51;100966.0;;;6.23;100.0
68376;BME280;55318;52.068;5.188;2024-03-23T04:09:03;100961.0;;;6.21;100.0
68376;BME280;55318;52.068;5.188;2024-03-23T04:10:40;100961.0;;;6.22;100.0
68376;BME280;55318;52.068;5.188;2024-03-23T04:12:16;100962.0;;;6.23;100.0
68376;BME280;55318;52.068;5.188;2024-03-23T04:15:28;100957.0;;;6.35;100.0
68376;BME280;55318;52.068;5.188;2024-03-23T04:17:04;100953.0;;;6.45;100.0
68376;BME280;55318;52.068;5.188;2024-03-23T04:18:40;100948.0;;;6.39;100.0
68376;BME280;55318;52.068;5.188;2024-03-23T04:21:52;100955.0;;;6.37;100.0
68376;BME280;55318;52.068;5.188;2024-03-23T04:23:28;100961.0;;;6.29;100.0
68376;BME280;55318;52.068;5.188;2024-03-23T04:25:05;100955.0;;;6.3;100.0
68376;BME280;55318;52.068;5.188;2024-03-23T04:26:42;100959.0;;;6.15;100.0
68376;BME280;55318;52.068;5.188;2024-03-23T04:29:55;100951.0;;;6.12;100.0
68376;BME280;55318;52.068;5.188;2024-03-23T04:31:31;100950.0;;;6.1;100.0
68376;BME280;55318;52.068;5.188;2024-03-23T04:33:07;100952.0;;;6.15;100.0
68376;BME280;55318;52.068;5.188;2024-03-23T04:36:20;100953.0;;;6.06;100.0
68376;BME280;55318;52.068;5.188;2024-03-23T04:37:56;100956.0;;;5.95;100.0
68376;BME280;55318;52.068;5.188;2024-03-23T04:39:33;100957.0;;;6.08;100.0
68376;BME280;55318;52.068;5.188;2024-03-23T04:42:44;100956.0;;;6.08;100.0
68376;BME280;55318;52.068;5.188;2024-03-23T04:44:21;100953.0;;;6.12;100.0
68376;BME280;55318;52.068;5.188;2024-03-23T04:45:57;100953.0;;;6.12;100.0
68376;BME280;55318;52.068;5.188;2024-03-23T04:49:09;100958.0;;;6.24;100.0
68376;BME280;55318;52.068;5.188;2024-03-23T04:50:45;100953.0;;;6.41;100.0
68376;BME280;55318;52.068;5.188;2024-03-23T04:52:21;100948.0;;;6.45;100.0
68376;BME280;55318;52.068;5.188;2024-03-23T04:53:57;100951.0;;;6.53;100.0
68376;BME280;55318;52.068;5.188;2024-03-23T04:57:09;100953.0;;;6.59;100.0
68376;BME280;55318;52.068;5.188;2024-03-23T04:58:45;100949.0;;;6.63;100.0
68376;BME280;55318;52.068;5.188;2024-03-23T05:00:21;100944.0;;;6.63;100.0
68376;BME280;55318;52.068;5.188;2024-03-23T05:03:33;100945.0;;;6.49;100.0
68376;BME280;55318;52.068;5.188;2024-03-23T05:05:09;100946.0;;;6.61;100.0
68376;BME280;55318;52.068;5.188;2024-03-23T05:06:45;100946.0;;;6.58;100.0
68376;BME280;55318;52.068;5.188;2024-03-23T05:09:57;100946.0;;;6.53;100.0
68376;BME280;55318;52.068;5.188;2024-03-23T05:11:33;100948.0;;;6.56;100.0
68376;BME280;55318;52.068;5.188;2024-03-23T05:13:09;100953.0;;;6.54;100.0
68376;BME280;55318;52.068;5.188;2024-03-23T05:16:22;100952.0;;;6.59;100.0
68376;BME280;55318;52.068;5.188;2024-03-23T05:17:58;100949.0;;;6.68;100.0
68376;BME280;55318;52.068;5.188;2024-03-23T05:19:34;100953.0;;;6.81;100.0
68376;BME280;55318;52.068;5.188;2024-03-23T05:21:10;100958.0;;;6.89;100.0
68376;BME280;55318;52.068;5.188;2024-03-23T05:24:22;100957.0;;;6.86;100.0
68376;BME280;55318;52.068;5.188;2024-03-23T05:25:58;100960.0;;;6.79;100.0
68376;BME280;55318;52.068;5.188;2024-03-23T05:27:34;100957.0;;;6.75;100.0
68376;BME280;55318;52.068;5.188;2024-03-23T05:30:50;100962.0;;;6.94;100.0
68376;BME280;55318;52.068;5.188;2024-03-23T05:32:26;100961.0;;;6.92;100.0
68376;BME280;55318;52.068;5.188;2024-03-23T05:34:02;100960.0;;;6.98;99.65
68376;BME280;55318;52.068;5.188;2024-03-23T05:37:15;100961.0;;;6.95;99.49
68376;BME280;55318;52.068;5.188;2024-03-23T05:38:51;100964.0;;;6.95;99.36
68376;BME280;55318;52.068;5.188;2024-03-23T05:40:27;100965.0;;;6.85;100.0
68376;BME280;55318;52.068;5.188;2024-03-23T05:42:03;100962.0;;;7.04;99.74
68376;BME280;55318;52.068;5.188;2024-03-23T05:45:15;100961.0;;;7.17;99.34
68376;BME280;55318;52.068;5.188;2024-03-23T05:46:51;100959.0;;;7.17;99.08
68376;BME280;55318;52.068;5.188;2024-03-23T05:48:28;100957.0;;;7.21;99.03
68376;BME280;55318;52.068;5.188;2024-03-23T05:51:41;100955.0;;;7.23;99.0
68376;BME280;55318;52.068;5.188;2024-03-23T05:53:17;100949.0;;;7.21;98.7
68376;BME280;55318;52.068;5.188;2024-03-23T05:54:54;100946.0;;;7.31;98.57
68376;BME280;55318;52.068;5.188;2024-03-23T05:58:06;100952.0;;;7.14;99.45
68376;BME280;55318;52.068;5.188;2024-03-23T05:59:42;100947.0;;;7.14;98.95
68376;BME280;55318;52.068;5.188;2024-03-23T06:01:18;100953.0;;;7.19;98.96
68376;BME280;55318;52.068;5.188;2024-03-23T06:04:30;100953.0;;;7.31;98.23
68376;BME280;55318;52.068;5.188;2024-03-23T06:06:06;100960.0;;;7.36;98.09
68376;BME280;55318;52.068;5.188;2024-03-23T06:07:42;100958.0;;;7.42;97.38
68376;BME280;55318;52.068;5.188;2024-03-23T06:09:19;100958.0;;;7.38;96.91
68376;BME280;55318;52.068;5.188;2024-03-23T06:12:31;100955.0;;;7.54;96.83
68376;BME280;55318;52.068;5.188;2024-03-23T06:14:07;100956.0;;;7.39;97.78
68376;BME280;55318;52.068;5.188;2024-03-23T06:15:43;100959.0;;;7.49;97.76
68376;BME280;55318;52.068;5.188;2024-03-23T06:18:55;100963.0;;;7.59;96.97
68376;BME280;55318;52.068;5.188;2024-03-23T06:20:31;100957.0;;;7.63;97.82
68376;BME280;55318;52.068;5.188;2024-03-23T06:22:07;100959.0;;;7.78;96.98
68376;BME280;55318;52.068;5.188;2024-03-23T06:25:21;100955.0;;;7.87;96.81
68376;BME280;55318;52.068;5.188;2024-03-23T06:26:57;100955.0;;;7.99;96.78
68376;BME280;55318;52.068;5.188;2024-03-23T06:28:33;100955.0;;;8.17;95.94
68376;BME280;55318;52.068;5.188;2024-03-23T06:30:10;100952.0;;;8.24;95.62
68376;BME280;55318;52.068;5.188;2024-03-23T06:33:29;100950.0;;;8.3;94.89
68376;BME280;55318;52.068;5.188;2024-03-23T06:35:06;100942.0;;;8.35;94.56
68376;BME280;55318;52.068;5.188;2024-03-23T06:36:42;100945.0;;;8.48;93.76
68376;BME280;55318;52.068;5.188;2024-03-23T06:39:54;100942.0;;;8.55;94.55
68376;BME280;55318;52.068;5.188;2024-03-23T06:41:31;100939.0;;;8.67;93.13
68376;BME280;55318;52.068;5.188;2024-03-23T06:43:07;100940.0;;;8.78;92.51
68376;BME280;55318;52.068;5.188;2024-03-23T06:47:55;100945.0;;;8.98;92.14
68376;BME280;55318;52.068;5.188;2024-03-23T06:49:31;100945.0;;;9.18;91.49
68376;BME280;55318;52.068;5.188;2024-03-23T06:51:07;100951.0;;;9.17;90.78
68376;BME280;55318;52.068;5.188;2024-03-23T06:54:19;100946.0;;;9.34;92.28
68376;BME280;55318;52.068;5.188;2024-03-23T06:55:56;100944.0;;;9.49;89.37
68376;BME280;55318;52.068;5.188;2024-03-23T06:57:32;100948.0;;;9.5;89.65
68376;BME280;55318;52.068;5.188;2024-03-23T07:00:44;100949.0;;;9.66;90.32
68376;BME280;55318;52.068;5.188;2024-03-23T07:02:20;100949.0;;;9.76;90.51
68376;BME280;55318;52.068;5.188;2024-03-23T07:03:56;100946.0;;;9.88;88.01
68376;BME280;55318;52.068;5.188;2024-03-23T07:07:08;100949.0;;;9.91;88.55
68376;BME280;55318;52.068;5.188;2024-03-23T07:08:44;100953.0;;;9.99;87.36
68376;BME280;55318;52.068;5.188;2024-03-23T07:10:20;100949.0;;;9.98;88.14
68376;BME280;55318;52.068;5.188;2024-03-23T07:13:33;100950.0;;;10.05;87.75
68376;BME280;55318;52.068;5.188;2024-03-23T07:15:09;100946.0;;;10.21;87.47
68376;BME280;55318;52.068;5.188;2024-03-23T07:16:45;100946.0;;;10.39;86.56
68376;BME280;55318;52.068;5.188;2024-03-23T07:18:22;100951.0;;;10.38;86.6
68376;BME280;55318;52.068;5.188;2024-03-23T07:21:35;100955.0;;;10.5;85.52
68376;BME280;55318;52.068;5.188;2024-03-23T07:23:11;100955.0;;;10.61;84.87
68376;BME280;55318;52.068;5.188;2024-03-23T07:24:47;100955.0;;;10.67;83.5
68376;BME280;55318;52.068;5.188;2024-03-23T07:28:00;100953.0;;;10.91;83.94
68376;BME280;55318;52.068;5.188;2024-03-23T07:29:36;100955.0;;;11.07;84.57
68376;BME280;55318;52.068;5.188;2024-03-23T07:31:13;100949.0;;;11.18;83.54
68376;BME280;55318;52.068;5.188;2024-03-23T07:34:25;100959.0;;;11.13;80.89
68376;BME280;55318;52.068;5.188;2024-03-23T07:36:02;100950.0;;;11.34;80.42
68376;BME280;55318;52.068;5.188;2024-03-23T07:37:38;100958.0;;;11.37;78.16
68376;BME280;55318;52.068;5.188;2024-03-23T07:39:14;100963.0;;;11.45;77.97
68376;BME280;55318;52.068;5.188;2024-03-23T07:42:28;100963.0;;;11.48;77.59
68376;BME280;55318;52.068;5.188;2024-03-23T07:44:05;100957.0;;;11.57;78.83
68376;BME280;55318;52.068;5.188;2024-03-23T07:45:41;100956.0;;;11.72;79.0
68376;BME280;55318;52.068;5.188;2024-03-23T07:48:53;100955.0;;;12.03;78.28
68376;BME280;55318;52.068;5.188;2024-03-23T07:50:29;100957.0;;;12.23;77.58
68376;BME280;55318;52.068;5.188;2024-03-23T07:52:05;100955.0;;;12.16;74.61
68376;BME280;55318;52.068;5.188;2024-03-23T07:55:19;100960.0;;;12.17;76.83
68376;BME280;55318;52.068;5.188;2024-03-23T07:56:56;100947.0;;;12.32;78.25
68376;BME280;55318;52.068;5.188;2024-03-23T07:58:32;100952.0;;;12.42;74.69
68376;BME280;55318;52.068;5.188;2024-03-23T08:00:10;100953.0;;;12.17;73.66
68376;BME280;55318;52.068;5.188;2024-03-23T08:03:22;100950.0;;;12.06;74.47
68376;BME280;55318;52.068;5.188;2024-03-23T08:04:58;100953.0;;;11.83;75.61
68376;BME280;55318;52.068;5.188;2024-03-23T08:06:34;100951.0;;;11.89;74.95
68376;BME280;55318;52.068;5.188;2024-03-23T08:09:46;100951.0;;;11.5;73.55
68376;BME280;55318;52.068;5.188;2024-03-23T08:11:22;100949.0;;;11.61;74.91
68376;BME280;55318;52.068;5.188;2024-03-23T08:12:59;100944.0;;;11.78;75.41
68376;BME280;55318;52.068;5.188;2024-03-23T08:16:12;100948.0;;;11.67;73.99
68376;BME280;55318;52.068;5.188;2024-03-23T08:17:49;100955.0;;;11.61;76.02
68376;BME280;55318;52.068;5.188;2024-03-23T08:19:25;100947.0;;;11.49;75.19
68376;BME280;55318;52.068;5.188;2024-03-23T08:21:04;100944.0;;;11.81;74.08
68376;BME280;55318;52.068;5.188;2024-03-23T08:24:15;100943.0;;;12.21;77.09
68376;BME280;55318;52.068;5.188;2024-03-23T08:25:52;100946.0;;;12.35;72.13
68376;BME280;55318;52.068;5.188;2024-03-23T08:27:28;100941.0;;;12.43;69.77
68376;BME280;55318;52.068;5.188;2024-03-23T08:30:41;100942.0;;;12.33;70.86
68376;BME280;55318;52.068;5.188;2024-03-23T08:32:17;100950.0;;;12.19;71.33
68376;BME280;55318;52.068;5.188;2024-03-23T08:33:53;100955.0;;;12.06;70.84
68376;BME280;55318;52.068;5.188;2024-03-23T08:37:05;100956.0;;;11.99;73.41
68376;BME280;55318;52.068;5.188;2024-03-23T08:38:41;100956.0;;;11.73;69.91
68376;BME280;55318;52.068;5.188;2024-03-23T08:40:17;100962.0;;;11.61;70.87
68376;BME280;55318;52.068;5.188;2024-03-23T08:43:30;100959.0;;;11.72;71.86
68376;BME280;55318;52.068;5.188;2024-03-23T08:45:08;100960.0;;;11.77;75.33
68376;BME280;55318;52.068;5.188;2024-03-23T08:46:44;100955.0;;;11.79;73.36
68376;BME280;55318;52.068;5.188;2024-03-23T08:48:20;100967.0;;;11.65;71.94
68376;BME280;55318;52.068;5.188;2024-03-23T08:51:32;100962.0;;;11.6;70.75
68376;BME280;55318;52.068;5.188;2024-03-23T08:53:08;100946.0;;;11.48;70.44
68376;BME280;55318;52.068;5.188;2024-03-23T08:54:44;100948.0;;;11.46;71.33
68376;BME280;55318;52.068;5.188;2024-03-23T08:57:56;100951.0;;;11.38;70.77
68376;BME280;55318;52.068;5.188;2024-03-23T08:59:33;100942.0;;;11.26;71.91
68376;BME280;55318;52.068;5.188;2024-03-23T09:01:10;100940.0;;;11.14;73.66
68376;BME280;55318;52.068;5.188;2024-03-23T09:04:23;100938.0;;;11.14;74.69
68376;BME280;55318;52.068;5.188;2024-03-23T09:05:59;100943.0;;;11.23;74.66
68376;BME280;55318;52.068;5.188;2024-03-23T09:07:35;100945.0;;;11.54;76.23
68376;BME280;55318;52.068;5.188;2024-03-23T09:09:11;100950.0;;;11.66;73.08
68376;BME280;55318;52.068;5.188;2024-03-23T09:12:24;100952.0;;;11.55;71.47
68376;BME280;55318;52.068;5.188;2024-03-23T09:14:01;100958.0;;;11.47;72.62
68376;BME280;55318;52.068;5.188;2024-03-23T09:15:44;100944.0;;;11.51;72.81
68376;BME280;55318;52.068;5.188;2024-03-23T09:18:59;100943.0;;;11.38;72.41
68376;BME280;55318;52.068;5.188;2024-03-23T09:20:35;100941.0;;;11.65;75.55
68376;BME280;55318;52.068;5.188;2024-03-23T09:22:11;100940.0;;;11.6;72.38
68376;BME280;55318;52.068;5.188;2024-03-23T09:23:47;100946.0;;;11.47;71.7
68376;BME280;55318;52.068;5.188;2024-03-23T09:26:59;100936.0;;;11.72;72.45
68376;BME280;55318;52.068;5.188;2024-03-23T09:28:35;100936.0;;;11.7;70.62
68376;BME280;55318;52.068;5.188;2024-03-23T09:30:13;100937.0;;;12.09;71.13
68376;BME280;55318;52.068;5.188;2024-03-23T09:33:26;100932.0;;;12.04;70.69
68376;BME280;55318;52.068;5.188;2024-03-23T09:35:02;100938.0;;;12.21;69.69
68376;BME280;55318;52.068;5.188;2024-03-23T09:36:39;100928.0;;;12.31;68.92
68376;BME280;55318;52.068;5.188;2024-03-23T09:39:51;100933.0;;;12.48;67.99
68376;BME280;55318;52.068;5.188;2024-03-23T09:41:27;100930.0;;;12.74;69.12
68376;BME280;55318;52.068;5.188;2024-03-23T09:44:43;100923.0;;;13.04;67.22
68376;BME280;55318;52.068;5.188;2024-03-23T10:49:46;100942.0;;;9.67;87.79
68376;BME280;55318;52.068;5.188;2024-03-23T10:52:59;100928.0;;;10.21;92.95
68376;BME280;55318;52.068;5.188;2024-03-23T10:54:35;100927.0;;;10.6;90.73
68376;BME280;55318;52.068;5.188;2024-03-23T10:56:12;100928.0;;;10.72;86.21
68376;BME280;55318;52.068;5.188;2024-03-23T10:59:31;100936.0;;;10.69;83.98
68376;BME280;55318;52.068;5.188;2024-03-23T11:01:10;100935.0;;;10.74;84.56
68376;BME280;55318;52.068;5.188;2024-03-23T11:02:47;100931.0;;;10.69;83.6
68376;BME280;55318;52.068;5.188;2024-03-23T11:04:30;100930.0;;;10.3;80.86
68376;BME280;55318;52.068;5.188;2024-03-23T11:07:49;100932.0;;;10.52;83.29
68376;BME280;55318;52.068;5.188;2024-03-23T11:09:45;100930.0;;;10.82;85.55
68376;BME280;55318;52.068;5.188;2024-03-23T11:11:22;100922.0;;;11.22;84.64
68376;BME280;55318;52.068;5.188;2024-03-23T11:13:21;100934.0;;;11.49;81.96
68376;BME280;55318;52.068;5.188;2024-03-23T11:15:01;100924.0;;;11.94;84.44
68376;BME280;55318;52.068;5.188;2024-03-23T11:18:20;100927.0;;;12.0;74.7
68376;BME280;55318;52.068;5.188;2024-03-23T11:19:57;100927.0;;;12.28;76.2
68376;BME280;55318;52.068;5.188;2024-03-23T11:21:55;100921.0;;;12.07;72.16
68376;BME280;55318;52.068;5.188;2024-03-23T11:23:30;100920.0;;;12.21;74.11
68376;BME280;55318;52.068;5.188;2024-03-23T11:25:19;100919.0;;;12.37;72.58
68376;BME280;55318;52.068;5.188;2024-03-23T11:28:32;100917.0;;;12.59;72.34
68376;BME280;55318;52.068;5.188;2024-03-23T11:30:11;100917.0;;;12.22;69.0
68376;BME280;55318;52.068;5.188;2024-03-23T11:31:50;100922.0;;;12.54;68.92
68376;BME280;55318;52.068;5.188;2024-03-23T11:35:04;100923.0;;;12.57;67.88
68376;BME280;55318;52.068;5.188;2024-03-23T11:36:40;100926.0;;;12.82;68.72
68376;BME280;55318;52.068;5.188;2024-03-23T11:38:17;100913.0;;;13.07;68.95
68376;BME280;55318;52.068;5.188;2024-03-23T11:39:53;100917.0;;;13.14;66.34
68376;BME280;55318;52.068;5.188;2024-03-23T11:43:07;100918.0;;;13.18;67.03
68376;BME280;55318;52.068;5.188;2024-03-23T11:44:44;100908.0;;;13.02;64.38
68376;BME280;55318;52.068;5.188;2024-03-23T11:46:22;100912.0;;;12.94;67.78
68376;BME280;55318;52.068;5.188;2024-03-23T11:49:41;100910.0;;;12.75;65.09
68376;BME280;55318;52.068;5.188;2024-03-23T11:51:17;100914.0;;;12.49;68.97
68376;BME280;55318;52.068;5.188;2024-03-23T11:53:06;100906.0;;;12.22;64.87
68376;BME280;55318;52.068;5.188;2024-03-23T11:54:42;100910.0;;;12.01;64.59
68376;BME280;55318;52.068;5.188;2024-03-23T11:57:54;100907.0;;;12.15;66.3
68376;BME280;55318;52.068;5.188;2024-03-23T11:59:32;100902.0;;;12.25;67.5
68376;BME280;55318;52.068;5.188;2024-03-23T12:01:10;100892.0;;;12.78;67.38
68376;BME280;55318;52.068;5.188;2024-03-23T12:02:46;100900.0;;;12.89;66.27
68376;BME280;55318;52.068;5.188;2024-03-23T12:06:04;100897.0;;;13.31;65.64
68376;BME280;55318;52.068;5.188;2024-03-23T12:07:40;100894.0;;;13.44;64.36
68376;BME280;55318;52.068;5.188;2024-03-23T12:09:16;100899.0;;;13.03;61.21
68376;BME280;55318;52.068;5.188;2024-03-23T12:12:40;100891.0;;;13.13;60.89
68376;BME280;55318;52.068;5.188;2024-03-23T12:14:17;100892.0;;;12.77;60.78
68376;BME280;55318;52.068;5.188;2024-03-23T12:15:53;100895.0;;;12.72;61.99
68376;BME280;55318;52.068;5.188;2024-03-23T12:17:29;100890.0;;;12.38;61.11
68376;BME280;55318;52.068;5.188;2024-03-23T12:20:41;100885.0;;;12.26;60.89
68376;BME280;55318;52.068;5.188;2024-03-23T12:22:20;100880.0;;;12.27;61.32
68376;BME280;55318;52.068;5.188;2024-03-23T12:23:56;100875.0;;;12.7;64.27
68376;BME280;55318;52.068;5.188;2024-03-23T12:27:08;100885.0;;;12.52;61.29
68376;BME280;55318;52.068;5.188;2024-03-23T12:28:44;100880.0;;;12.38;63.7
68376;BME280;55318;52.068;5.188;2024-03-23T12:30:20;100874.0;;;12.59;64.91
68376;BME280;55318;52.068;5.188;2024-03-23T12:33:36;100874.0;;;12.49;62.28
68376;BME280;55318;52.068;5.188;2024-03-23T12:35:12;100878.0;;;12.51;64.16
68376;BME280;55318;52.068;5.188;2024-03-23T12:36:48;100863.0;;;12.39;62.67
68376;BME280;55318;52.068;5.188;2024-03-23T12:38:24;100866.0;;;12.59;61.83
68376;BME280;55318;52.068;5.188;2024-03-23T12:41:36;100860.0;;;12.94;65.72
68376;BME280;55318;52.068;5.188;2024-03-23T12:43:12;100864.0;;;12.93;67.69
68376;BME280;55318;52.068;5.188;2024-03-23T12:44:48;100862.0;;;13.14;67.78
68376;BME280;55318;52.068;5.188;2024-03-23T12:48:01;100856.0;;;13.5;66.72
68376;BME280;55318;52.068;5.188;2024-03-23T12:49:37;100852.0;;;13.51;61.48
68376;BME280;55318;52.068;5.188;2024-03-23T12:51:13;100855.0;;;13.71;62.75
68376;BME280;55318;52.068;5.188;2024-03-23T12:54:25;100857.0;;;13.76;62.27
68376;BME280;55318;52.068;5.188;2024-03-23T12:56:01;100852.0;;;13.86;62.5
68376;BME280;55318;52.068;5.188;2024-03-23T12:57:37;100862.0;;;14.32;61.62
68376;BME280;55318;52.068;5.188;2024-03-23T13:00:50;100855.0;;;14.44;62.02
68376;BME280;55318;52.068;5.188;2024-03-23T13:02:27;100867.0;;;14.39;58.75
68376;BME280;55318;52.068;5.188;2024-03-23T13:04:03;100851.0;;;14.44;57.15
68376;BME280;55318;52.068;5.188;2024-03-23T13:05:39;100844.0;;;13.92;55.1
68376;BME280;55318;52.068;5.188;2024-03-23T13:08:51;100864.0;;;13.89;56.52
68376;BME280;55318;52.068;5.188;2024-03-23T13:10:27;100898.0;;;13.61;57.59